Xiaogan, China
Current Conditions -  °F | °C
As of 12:00 PM on Sunday 26 Oct 2014 (Local Time) from ZHHH Reporting Station
Haze Haze  
Wind Chill: 81°   Ceiling: Unl
Heat Index: 82°   Visibility: 2.5mi
Dew Point: 63°   Wind: 4mph
Humidity: 54%   Direction: 180°S
Pressure: 30.06"   Gusts: NA
Location:  30.92°N, 113.9°E
Report Text: ZHHH 260400Z 18002MPS 090V260 4000 HZ NSC 27/17 Q1018 NOSIG
Loading
Personal Weather Stations






























Interactive Weather Map
Tropical Storm Tracking
New forecast layout! Learn more

10-Day Weather Forecast

Advertisements
Track Severe Weather on mobile